sensor_id;sensor_type;location;lat;lon;timestamp;temperature;humidity
19952;DHT22;10137;49.406;19.484;2023-09-19T00:00:39;18.40;99.90
19952;DHT22;10137;49.406;19.484;2023-09-19T00:03:08;18.40;99.90
19952;DHT22;10137;49.406;19.484;2023-09-19T00:05:39;18.40;99.90
19952;DHT22;10137;49.406;19.484;2023-09-19T00:08:11;18.40;99.90
19952;DHT22;10137;49.406;19.484;2023-09-19T00:10:40;18.40;99.90
19952;DHT22;10137;49.406;19.484;2023-09-19T00:13:10;18.50;99.90
19952;DHT22;10137;49.406;19.484;2023-09-19T00:15:41;18.40;99.90
19952;DHT22;10137;49.406;19.484;2023-09-19T00:18:12;18.40;99.90
19952;DHT22;10137;49.406;19.484;2023-09-19T00:20:42;18.30;99.90
19952;DHT22;10137;49.406;19.484;2023-09-19T00:23:14;18.30;99.90
19952;DHT22;10137;49.406;19.484;2023-09-19T00:25:42;18.30;99.90
19952;DHT22;10137;49.406;19.484;2023-09-19T00:28:12;18.30;99.90
19952;DHT22;10137;49.406;19.484;2023-09-19T00:30:43;18.20;99.90
19952;DHT22;10137;49.406;19.484;2023-09-19T00:33:11;18.20;99.90
19952;DHT22;10137;49.406;19.484;2023-09-19T00:35:47;18.20;99.90
19952;DHT22;10137;49.406;19.484;2023-09-19T00:38:16;18.10;99.90
19952;DHT22;10137;49.406;19.484;2023-09-19T00:40:46;18.10;99.90
19952;DHT22;10137;49.406;19.484;2023-09-19T00:43:15;18.10;99.90
19952;DHT22;10137;49.406;19.484;2023-09-19T00:45:44;18.10;99.90
19952;DHT22;10137;49.406;19.484;2023-09-19T00:48:14;18.10;99.90
19952;DHT22;10137;49.406;19.484;2023-09-19T00:50:44;18.10;99.90
19952;DHT22;10137;49.406;19.484;2023-09-19T00:53:17;18.10;99.90
19952;DHT22;10137;49.406;19.484;2023-09-19T00:55:49;18.10;99.90
19952;DHT22;10137;49.406;19.484;2023-09-19T00:58:20;18.20;99.90
19952;DHT22;10137;49.406;19.484;2023-09-19T01:00:49;18.20;99.90
19952;DHT22;10137;49.406;19.484;2023-09-19T01:03:17;18.20;99.90
19952;DHT22;10137;49.406;19.484;2023-09-19T01:05:44;18.20;99.90
19952;DHT22;10137;49.406;19.484;2023-09-19T01:08:13;18.30;99.90
19952;DHT22;10137;49.406;19.484;2023-09-19T01:10:51;18.20;99.90
19952;DHT22;10137;49.406;19.484;2023-09-19T01:13:23;18.30;99.90
19952;DHT22;10137;49.406;19.484;2023-09-19T01:16:03;18.30;99.90
19952;DHT22;10137;49.406;19.484;2023-09-19T01:18:39;18.30;99.90
19952;DHT22;10137;49.406;19.484;2023-09-19T01:21:11;18.40;99.90
19952;DHT22;10137;49.406;19.484;2023-09-19T01:24:06;18.40;99.90
19952;DHT22;10137;49.406;19.484;2023-09-19T01:26:53;18.40;99.90
19952;DHT22;10137;49.406;19.484;2023-09-19T01:29:34;18.40;99.90
19952;DHT22;10137;49.406;19.484;2023-09-19T01:32:08;18.50;99.90
19952;DHT22;10137;49.406;19.484;2023-09-19T01:34:46;18.50;99.90
19952;DHT22;10137;49.406;19.484;2023-09-19T01:37:15;18.50;99.90
19952;DHT22;10137;49.406;19.484;2023-09-19T01:39:47;18.50;99.90
19952;DHT22;10137;49.406;19.484;2023-09-19T01:42:27;18.50;99.90
19952;DHT22;10137;49.406;19.484;2023-09-19T01:45:05;18.40;99.90
19952;DHT22;10137;49.406;19.484;2023-09-19T01:47:41;18.40;99.90
19952;DHT22;10137;49.406;19.484;2023-09-19T01:50:17;18.40;99.90
19952;DHT22;10137;49.406;19.484;2023-09-19T01:52:50;18.40;99.90
19952;DHT22;10137;49.406;19.484;2023-09-19T01:55:21;18.30;99.90
19952;DHT22;10137;49.406;19.484;2023-09-19T01:58:00;18.30;99.90
19952;DHT22;10137;49.406;19.484;2023-09-19T02:00:34;18.30;99.90
19952;DHT22;10137;49.406;19.484;2023-09-19T02:03:09;18.30;99.90
19952;DHT22;10137;49.406;19.484;2023-09-19T02:05:38;18.30;99.90
19952;DHT22;10137;49.406;19.484;2023-09-19T02:08:06;18.30;99.90
19952;DHT22;10137;49.406;19.484;2023-09-19T02:10:35;18.30;99.90
19952;DHT22;10137;49.406;19.484;2023-09-19T02:13:05;18.30;99.90
19952;DHT22;10137;49.406;19.484;2023-09-19T02:15:33;18.30;99.90
19952;DHT22;10137;49.406;19.484;2023-09-19T02:18:01;18.30;99.90
19952;DHT22;10137;49.406;19.484;2023-09-19T02:20:32;18.30;99.90
19952;DHT22;10137;49.406;19.484;2023-09-19T02:23:03;18.30;99.90
19952;DHT22;10137;49.406;19.484;2023-09-19T02:25:33;18.30;99.90
19952;DHT22;10137;49.406;19.484;2023-09-19T02:28:02;18.30;99.90
19952;DHT22;10137;49.406;19.484;2023-09-19T02:30:30;18.30;99.90
19952;DHT22;10137;49.406;19.484;2023-09-19T02:33:00;18.30;99.90
19952;DHT22;10137;49.406;19.484;2023-09-19T02:35:29;18.40;99.90
19952;DHT22;10137;49.406;19.484;2023-09-19T02:38:03;18.30;99.90
19952;DHT22;10137;49.406;19.484;2023-09-19T02:40:33;18.30;99.90
19952;DHT22;10137;49.406;19.484;2023-09-19T02:43:03;18.40;99.90
19952;DHT22;10137;49.406;19.484;2023-09-19T02:45:31;18.30;99.90
19952;DHT22;10137;49.406;19.484;2023-09-19T02:48:00;18.20;99.90
19952;DHT22;10137;49.406;19.484;2023-09-19T02:50:29;18.20;99.90
19952;DHT22;10137;49.406;19.484;2023-09-19T02:52:58;18.10;99.90
19952;DHT22;10137;49.406;19.484;2023-09-19T02:55:27;18.10;99.90
19952;DHT22;10137;49.406;19.484;2023-09-19T02:57:56;18.00;99.90
19952;DHT22;10137;49.406;19.484;2023-09-19T03:00:24;18.00;99.90
19952;DHT22;10137;49.406;19.484;2023-09-19T03:02:54;17.90;99.90
19952;DHT22;10137;49.406;19.484;2023-09-19T03:05:23;17.90;99.90
19952;DHT22;10137;49.406;19.484;2023-09-19T03:07:52;17.80;99.90
19952;DHT22;10137;49.406;19.484;2023-09-19T03:10:22;17.70;99.90
19952;DHT22;10137;49.406;19.484;2023-09-19T03:12:53;17.70;99.90
19952;DHT22;10137;49.406;19.484;2023-09-19T03:15:21;17.70;99.90
19952;DHT22;10137;49.406;19.484;2023-09-19T03:17:50;17.70;99.90
19952;DHT22;10137;49.406;19.484;2023-09-19T03:20:19;17.70;99.90
19952;DHT22;10137;49.406;19.484;2023-09-19T03:22:50;17.70;99.90
19952;DHT22;10137;49.406;19.484;2023-09-19T03:25:19;17.60;99.90
19952;DHT22;10137;49.406;19.484;2023-09-19T03:27:49;17.70;99.90
19952;DHT22;10137;49.406;19.484;2023-09-19T03:30:19;17.70;99.90
19952;DHT22;10137;49.406;19.484;2023-09-19T03:32:48;17.60;99.90
19952;DHT22;10137;49.406;19.484;2023-09-19T03:35:17;17.70;99.90
19952;DHT22;10137;49.406;19.484;2023-09-19T03:37:46;17.60;99.90
19952;DHT22;10137;49.406;19.484;2023-09-19T03:40:14;17.60;99.90
19952;DHT22;10137;49.406;19.484;2023-09-19T03:42:44;17.60;99.90
19952;DHT22;10137;49.406;19.484;2023-09-19T03:45:13;17.60;99.90
19952;DHT22;10137;49.406;19.484;2023-09-19T03:47:44;17.60;99.90
19952;DHT22;10137;49.406;19.484;2023-09-19T03:50:14;17.60;99.90
19952;DHT22;10137;49.406;19.484;2023-09-19T03:52:44;17.70;99.90
19952;DHT22;10137;49.406;19.484;2023-09-19T03:55:14;17.70;99.90
19952;DHT22;10137;49.406;19.484;2023-09-19T03:57:42;17.70;99.90
19952;DHT22;10137;49.406;19.484;2023-09-19T04:00:11;17.70;99.90
19952;DHT22;10137;49.406;19.484;2023-09-19T04:02:41;17.70;99.90
19952;DHT22;10137;49.406;19.484;2023-09-19T04:05:10;17.60;99.90
19952;DHT22;10137;49.406;19.484;2023-09-19T04:07:39;17.70;99.90
19952;DHT22;10137;49.406;19.484;2023-09-19T04:10:08;17.70;99.90
19952;DHT22;10137;49.406;19.484;2023-09-19T04:12:38;17.70;99.90
19952;DHT22;10137;49.406;19.484;2023-09-19T04:15:08;17.70;99.90
19952;DHT22;10137;49.406;19.484;2023-09-19T04:17:40;17.70;99.90
19952;DHT22;10137;49.406;19.484;2023-09-19T04:20:10;17.70;99.90
19952;DHT22;10137;49.406;19.484;2023-09-19T04:22:39;17.60;99.90
19952;DHT22;10137;49.406;19.484;2023-09-19T04:25:07;17.50;99.90
19952;DHT22;10137;49.406;19.484;2023-09-19T04:27:36;17.50;99.90
19952;DHT22;10137;49.406;19.484;2023-09-19T04:30:06;17.40;99.90
19952;DHT22;10137;49.406;19.484;2023-09-19T04:32:39;17.40;99.90
19952;DHT22;10137;49.406;19.484;2023-09-19T04:35:10;17.30;99.90
19952;DHT22;10137;49.406;19.484;2023-09-19T04:37:39;17.20;99.90
19952;DHT22;10137;49.406;19.484;2023-09-19T04:40:09;17.20;99.90
19952;DHT22;10137;49.406;19.484;2023-09-19T04:42:41;17.20;99.90
19952;DHT22;10137;49.406;19.484;2023-09-19T04:45:09;17.20;99.90
19952;DHT22;10137;49.406;19.484;2023-09-19T04:47:40;17.20;99.90
19952;DHT22;10137;49.406;19.484;2023-09-19T04:50:12;17.20;99.90
19952;DHT22;10137;49.406;19.484;2023-09-19T04:52:45;17.30;99.90
19952;DHT22;10137;49.406;19.484;2023-09-19T04:55:18;17.20;99.90
19952;DHT22;10137;49.406;19.484;2023-09-19T04:57:50;17.20;99.90
19952;DHT22;10137;49.406;19.484;2023-09-19T05:00:20;17.20;99.90
19952;DHT22;10137;49.406;19.484;2023-09-19T05:02:51;17.30;99.90
19952;DHT22;10137;49.406;19.484;2023-09-19T05:05:21;17.30;99.90
19952;DHT22;10137;49.406;19.484;2023-09-19T05:07:51;17.30;99.90
19952;DHT22;10137;49.406;19.484;2023-09-19T05:10:24;17.40;99.90
19952;DHT22;10137;49.406;19.484;2023-09-19T05:12:53;17.40;99.90
19952;DHT22;10137;49.406;19.484;2023-09-19T05:15:22;17.40;99.90
19952;DHT22;10137;49.406;19.484;2023-09-19T05:17:51;17.50;99.90
19952;DHT22;10137;49.406;19.484;2023-09-19T05:20:26;17.50;99.90
19952;DHT22;10137;49.406;19.484;2023-09-19T05:23:03;17.50;99.90
19952;DHT22;10137;49.406;19.484;2023-09-19T05:25:36;17.50;99.90
19952;DHT22;10137;49.406;19.484;2023-09-19T05:28:10;17.60;99.90
19952;DHT22;10137;49.406;19.484;2023-09-19T05:30:42;17.60;99.90
19952;DHT22;10137;49.406;19.484;2023-09-19T05:33:12;17.60;99.90
19952;DHT22;10137;49.406;19.484;2023-09-19T05:35:42;17.60;99.90
19952;DHT22;10137;49.406;19.484;2023-09-19T05:38:10;17.70;99.90
19952;DHT22;10137;49.406;19.484;2023-09-19T05:40:40;17.70;99.90
19952;DHT22;10137;49.406;19.484;2023-09-19T05:43:10;17.70;99.90
19952;DHT22;10137;49.406;19.484;2023-09-19T05:45:41;17.60;99.90
19952;DHT22;10137;49.406;19.484;2023-09-19T05:48:09;17.70;99.90
19952;DHT22;10137;49.406;19.484;2023-09-19T05:50:42;17.70;99.90
19952;DHT22;10137;49.406;19.484;2023-09-19T05:53:13;17.60;99.90
19952;DHT22;10137;49.406;19.484;2023-09-19T05:55:45;17.70;99.90
19952;DHT22;10137;49.406;19.484;2023-09-19T05:58:12;17.70;99.90
19952;DHT22;10137;49.406;19.484;2023-09-19T06:00:42;17.60;99.90
19952;DHT22;10137;49.406;19.484;2023-09-19T06:03:11;17.60;99.90
19952;DHT22;10137;49.406;19.484;2023-09-19T06:05:42;17.60;99.90
19952;DHT22;10137;49.406;19.484;2023-09-19T06:08:10;17.60;99.90
19952;DHT22;10137;49.406;19.484;2023-09-19T06:10:38;17.60;99.90
19952;DHT22;10137;49.406;19.484;2023-09-19T06:13:08;17.60;99.90
19952;DHT22;10137;49.406;19.484;2023-09-19T06:15:40;17.50;99.90
19952;DHT22;10137;49.406;19.484;2023-09-19T06:18:11;17.50;99.90
19952;DHT22;10137;49.406;19.484;2023-09-19T06:20:43;17.50;99.90
19952;DHT22;10137;49.406;19.484;2023-09-19T06:23:11;17.50;99.90
19952;DHT22;10137;49.406;19.484;2023-09-19T06:25:40;17.50;99.90
19952;DHT22;10137;49.406;19.484;2023-09-19T06:28:10;17.40;99.90
19952;DHT22;10137;49.406;19.484;2023-09-19T06:30:40;17.40;99.90
19952;DHT22;10137;49.406;19.484;2023-09-19T06:33:09;17.50;99.90
19952;DHT22;10137;49.406;19.484;2023-09-19T06:35:38;17.40;99.90
19952;DHT22;10137;49.406;19.484;2023-09-19T06:38:16;17.50;99.90
19952;DHT22;10137;49.406;19.484;2023-09-19T06:40:45;17.50;99.90
19952;DHT22;10137;49.406;19.484;2023-09-19T06:43:13;17.50;99.90
19952;DHT22;10137;49.406;19.484;2023-09-19T06:45:42;17.50;99.90
19952;DHT22;10137;49.406;19.484;2023-09-19T06:48:10;17.50;99.90
19952;DHT22;10137;49.406;19.484;2023-09-19T06:50:38;17.40;99.90
19952;DHT22;10137;49.406;19.484;2023-09-19T06:53:10;17.40;99.90
19952;DHT22;10137;49.406;19.484;2023-09-19T06:55:44;17.50;99.90
19952;DHT22;10137;49.406;19.484;2023-09-19T06:58:12;17.40;99.90
19952;DHT22;10137;49.406;19.484;2023-09-19T07:00:40;17.40;99.90
19952;DHT22;10137;49.406;19.484;2023-09-19T07:03:09;17.40;99.90
19952;DHT22;10137;49.406;19.484;2023-09-19T07:05:48;17.40;99.90
19952;DHT22;10137;49.406;19.484;2023-09-19T07:08:16;17.30;99.90
19952;DHT22;10137;49.406;19.484;2023-09-19T07:10:48;17.30;99.90
19952;DHT22;10137;49.406;19.484;2023-09-19T07:13:16;17.30;99.90
19952;DHT22;10137;49.406;19.484;2023-09-19T07:15:45;17.30;99.90
19952;DHT22;10137;49.406;19.484;2023-09-19T07:18:15;17.30;99.90
19952;DHT22;10137;49.406;19.484;2023-09-19T07:20:43;17.30;99.90
19952;DHT22;10137;49.406;19.484;2023-09-19T07:23:15;17.30;99.90
19952;DHT22;10137;49.406;19.484;2023-09-19T07:25:44;17.20;99.90
19952;DHT22;10137;49.406;19.484;2023-09-19T07:28:19;17.30;99.90
19952;DHT22;10137;49.406;19.484;2023-09-19T07:30:47;17.30;99.90
19952;DHT22;10137;49.406;19.484;2023-09-19T07:33:15;17.30;99.90
19952;DHT22;10137;49.406;19.484;2023-09-19T07:35:45;17.30;99.90
19952;DHT22;10137;49.406;19.484;2023-09-19T07:38:14;17.20;99.90
19952;DHT22;10137;49.406;19.484;2023-09-19T07:40:42;17.20;99.90
19952;DHT22;10137;49.406;19.484;2023-09-19T07:43:10;17.20;99.90
19952;DHT22;10137;49.406;19.484;2023-09-19T07:45:42;17.20;99.90
19952;DHT22;10137;49.406;19.484;2023-09-19T07:48:18;17.20;99.90
19952;DHT22;10137;49.406;19.484;2023-09-19T07:50:46;17.20;99.90
19952;DHT22;10137;49.406;19.484;2023-09-19T07:53:15;17.20;99.90
19952;DHT22;10137;49.406;19.484;2023-09-19T07:55:44;17.20;99.90
19952;DHT22;10137;49.406;19.484;2023-09-19T07:58:14;17.10;99.90
19952;DHT22;10137;49.406;19.484;2023-09-19T08:00:44;17.00;99.90
19952;DHT22;10137;49.406;19.484;2023-09-19T08:03:12;17.00;99.90
19952;DHT22;10137;49.406;19.484;2023-09-19T08:05:41;17.00;99.90
19952;DHT22;10137;49.406;19.484;2023-09-19T08:08:10;16.90;99.90
19952;DHT22;10137;49.406;19.484;2023-09-19T08:10:41;17.00;99.90
19952;DHT22;10137;49.406;19.484;2023-09-19T08:13:15;17.00;99.90
19952;DHT22;10137;49.406;19.484;2023-09-19T08:15:46;16.90;99.90
19952;DHT22;10137;49.406;19.484;2023-09-19T08:18:14;16.90;99.90
19952;DHT22;10137;49.406;19.484;2023-09-19T08:20:43;16.90;99.90
19952;DHT22;10137;49.406;19.484;2023-09-19T08:23:13;16.90;99.90
19952;DHT22;10137;49.406;19.484;2023-09-19T08:25:41;16.90;99.90
19952;DHT22;10137;49.406;19.484;2023-09-19T08:28:09;16.90;99.90
19952;DHT22;10137;49.406;19.484;2023-09-19T08:30:41;16.90;99.90
19952;DHT22;10137;49.406;19.484;2023-09-19T08:33:14;16.80;99.90
19952;DHT22;10137;49.406;19.484;2023-09-19T08:35:43;16.80;99.90
19952;DHT22;10137;49.406;19.484;2023-09-19T08:38:12;16.80;99.90
19952;DHT22;10137;49.406;19.484;2023-09-19T08:40:41;16.80;99.90
19952;DHT22;10137;49.406;19.484;2023-09-19T08:43:10;16.80;99.90
19952;DHT22;10137;49.406;19.484;2023-09-19T08:45:39;16.70;99.90
19952;DHT22;10137;49.406;19.484;2023-09-19T08:48:25;16.70;99.90
19952;DHT22;10137;49.406;19.484;2023-09-19T08:50:57;16.70;99.90
19952;DHT22;10137;49.406;19.484;2023-09-19T08:53:34;16.70;99.90
19952;DHT22;10137;49.406;19.484;2023-09-19T08:56:08;16.70;99.90
19952;DHT22;10137;49.406;19.484;2023-09-19T08:58:44;16.70;99.90
19952;DHT22;10137;49.406;19.484;2023-09-19T09:01:15;16.60;99.90
19952;DHT22;10137;49.406;19.484;2023-09-19T09:03:45;16.70;99.90
19952;DHT22;10137;49.406;19.484;2023-09-19T09:06:14;16.60;99.90
19952;DHT22;10137;49.406;19.484;2023-09-19T09:08:43;16.60;99.90
19952;DHT22;10137;49.406;19.484;2023-09-19T09:11:13;16.70;99.90
19952;DHT22;10137;49.406;19.484;2023-09-19T09:13:43;16.60;99.90
19952;DHT22;10137;49.406;19.484;2023-09-19T09:16:13;16.60;99.90
19952;DHT22;10137;49.406;19.484;2023-09-19T09:18:45;16.60;99.90
19952;DHT22;10137;49.406;19.484;2023-09-19T09:21:19;16.60;99.90
19952;DHT22;10137;49.406;19.484;2023-09-19T09:23:49;16.60;99.90
19952;DHT22;10137;49.406;19.484;2023-09-19T09:26:41;16.70;99.90
19952;DHT22;10137;49.406;19.484;2023-09-19T09:29:09;16.70;99.90
19952;DHT22;10137;49.406;19.484;2023-09-19T09:31:37;16.70;99.90
19952;DHT22;10137;49.406;19.484;2023-09-19T09:34:11;16.70;99.90
19952;DHT22;10137;49.406;19.484;2023-09-19T09:36:40;16.60;99.90
19952;DHT22;10137;49.406;19.484;2023-09-19T09:39:09;16.70;99.90
19952;DHT22;10137;49.406;19.484;2023-09-19T09:41:45;16.70;99.90
19952;DHT22;10137;49.406;19.484;2023-09-19T09:44:13;16.70;99.90
19952;DHT22;10137;49.406;19.484;2023-09-19T09:46:43;16.70;99.90
19952;DHT22;10137;49.406;19.484;2023-09-19T09:49:27;16.60;99.90
19952;DHT22;10137;49.406;19.484;2023-09-19T09:52:02;16.70;99.90
19952;DHT22;10137;49.406;19.484;2023-09-19T09:54:35;16.70;99.90
19952;DHT22;10137;49.406;19.484;2023-09-19T09:57:09;16.80;99.90
19952;DHT22;10137;49.406;19.484;2023-09-19T09:59:51;16.80;99.90
19952;DHT22;10137;49.406;19.484;2023-09-19T10:02:21;16.80;99.90
19952;DHT22;10137;49.406;19.484;2023-09-19T10:05:11;16.80;99.90
19952;DHT22;10137;49.406;19.484;2023-09-19T10:07:49;16.80;99.90
19952;DHT22;10137;49.406;19.484;2023-09-19T10:10:30;16.80;99.90
19952;DHT22;10137;49.406;19.484;2023-09-19T10:13:06;16.80;99.90
19952;DHT22;10137;49.406;19.484;2023-09-19T10:15:39;16.80;99.90
19952;DHT22;10137;49.406;19.484;2023-09-19T10:18:10;16.80;99.90
19952;DHT22;10137;49.406;19.484;2023-09-19T10:20:50;16.80;99.90
19952;DHT22;10137;49.406;19.484;2023-09-19T10:23:20;16.80;99.90
19952;DHT22;10137;49.406;19.484;2023-09-19T10:25:51;16.80;99.90
19952;DHT22;10137;49.406;19.484;2023-09-19T10:28:21;16.90;99.90
19952;DHT22;10137;49.406;19.484;2023-09-19T10:30:50;16.90;99.90
19952;DHT22;10137;49.406;19.484;2023-09-19T10:33:20;17.00;99.90
19952;DHT22;10137;49.406;19.484;2023-09-19T10:35:51;16.90;99.90
19952;DHT22;10137;49.406;19.484;2023-09-19T10:38:23;17.00;99.90
19952;DHT22;10137;49.406;19.484;2023-09-19T10:40:53;17.00;99.90
19952;DHT22;10137;49.406;19.484;2023-09-19T10:43:23;16.90;99.90
19952;DHT22;10137;49.406;19.484;2023-09-19T10:45:54;16.90;99.90
19952;DHT22;10137;49.406;19.484;2023-09-19T10:48:25;16.90;99.90
19952;DHT22;10137;49.406;19.484;2023-09-19T10:51:04;16.90;99.90
19952;DHT22;10137;49.406;19.484;2023-09-19T10:53:53;16.90;99.90
19952;DHT22;10137;49.406;19.484;2023-09-19T10:56:26;16.90;99.90
19952;DHT22;10137;49.406;19.484;2023-09-19T10:59:10;16.90;99.90
19952;DHT22;10137;49.406;19.484;2023-09-19T11:01:49;16.90;99.90
19952;DHT22;10137;49.406;19.484;2023-09-19T11:04:24;16.90;99.90
19952;DHT22;10137;49.406;19.484;2023-09-19T11:07:06;16.90;99.90
19952;DHT22;10137;49.406;19.484;2023-09-19T11:09:52;16.90;99.90
19952;DHT22;10137;49.406;19.484;2023-09-19T11:12:49;16.90;99.90
19952;DHT22;10137;49.406;19.484;2023-09-19T11:18:51;16.80;99.90
19952;DHT22;10137;49.406;19.484;2023-09-19T11:24:32;16.90;99.90
19952;DHT22;10137;49.406;19.484;2023-09-19T11:27:12;17.00;99.90
19952;DHT22;10137;49.406;19.484;2023-09-19T11:29:44;17.10;99.90
19952;DHT22;10137;49.406;19.484;2023-09-19T11:32:13;17.20;99.90
19952;DHT22;10137;49.406;19.484;2023-09-19T11:34:49;17.20;99.90
19952;DHT22;10137;49.406;19.484;2023-09-19T11:40:36;17.50;99.90
19952;DHT22;10137;49.406;19.484;2023-09-19T11:43:28;17.60;99.90
19952;DHT22;10137;49.406;19.484;2023-09-19T11:46:07;17.70;99.90
19952;DHT22;10137;49.406;19.484;2023-09-19T11:48:43;17.80;99.90
19952;DHT22;10137;49.406;19.484;2023-09-19T11:51:20;17.90;99.90
19952;DHT22;10137;49.406;19.484;2023-09-19T11:53:53;17.90;99.90
19952;DHT22;10137;49.406;19.484;2023-09-19T11:56:27;17.90;99.90
19952;DHT22;10137;49.406;19.484;2023-09-19T11:58:56;17.90;99.90
19952;DHT22;10137;49.406;19.484;2023-09-19T12:01:28;17.90;99.90
19952;DHT22;10137;49.406;19.484;2023-09-19T12:04:00;18.00;99.90
19952;DHT22;10137;49.406;19.484;2023-09-19T12:06:29;18.10;99.90
19952;DHT22;10137;49.406;19.484;2023-09-19T12:08:59;18.10;99.90
19952;DHT22;10137;49.406;19.484;2023-09-19T12:11:41;18.10;99.90
19952;DHT22;10137;49.406;19.484;2023-09-19T12:14:21;18.10;99.90
19952;DHT22;10137;49.406;19.484;2023-09-19T12:16:53;18.10;99.90
19952;DHT22;10137;49.406;19.484;2023-09-19T12:19:23;18.20;99.90
19952;DHT22;10137;49.406;19.484;2023-09-19T12:21:59;18.20;99.90
19952;DHT22;10137;49.406;19.484;2023-09-19T12:24:31;18.20;99.90
19952;DHT22;10137;49.406;19.484;2023-09-19T12:27:05;18.40;99.90
19952;DHT22;10137;49.406;19.484;2023-09-19T12:29:43;18.50;99.90
19952;DHT22;10137;49.406;19.484;2023-09-19T12:32:11;18.60;99.90
19952;DHT22;10137;49.406;19.484;2023-09-19T12:34:41;18.60;99.90
19952;DHT22;10137;49.406;19.484;2023-09-19T12:37:11;18.60;99.90
19952;DHT22;10137;49.406;19.484;2023-09-19T12:39:43;18.70;99.90
19952;DHT22;10137;49.406;19.484;2023-09-19T12:42:19;18.70;99.90
19952;DHT22;10137;49.406;19.484;2023-09-19T12:44:48;18.80;99.90
19952;DHT22;10137;49.406;19.484;2023-09-19T12:47:18;18.80;99.90
19952;DHT22;10137;49.406;19.484;2023-09-19T12:50:15;18.80;99.90
19952;DHT22;10137;49.406;19.484;2023-09-19T12:52:56;18.80;99.90
19952;DHT22;10137;49.406;19.484;2023-09-19T12:55:28;18.70;99.90
19952;DHT22;10137;49.406;19.484;2023-09-19T12:58:07;18.70;99.90
19952;DHT22;10137;49.406;19.484;2023-09-19T13:00:37;18.60;99.90
19952;DHT22;10137;49.406;19.484;2023-09-19T13:03:13;18.70;99.90
19952;DHT22;10137;49.406;19.484;2023-09-19T13:05:50;18.70;99.90
19952;DHT22;10137;49.406;19.484;2023-09-19T13:08:24;18.70;99.90
19952;DHT22;10137;49.406;19.484;2023-09-19T13:11:07;18.70;99.90
19952;DHT22;10137;49.406;19.484;2023-09-19T13:13:50;18.70;99.90
19952;DHT22;10137;49.406;19.484;2023-09-19T13:16:22;18.70;99.90
19952;DHT22;10137;49.406;19.484;2023-09-19T13:18:56;18.70;99.90
19952;DHT22;10137;49.406;19.484;2023-09-19T13:21:32;18.60;99.90
19952;DHT22;10137;49.406;19.484;2023-09-19T13:24:21;18.60;99.90
19952;DHT22;10137;49.406;19.484;2023-09-19T13:26:52;18.60;99.90
19952;DHT22;10137;49.406;19.484;2023-09-19T13:29:23;18.60;99.90
19952;DHT22;10137;49.406;19.484;2023-09-19T13:31:52;18.60;99.90
19952;DHT22;10137;49.406;19.484;2023-09-19T13:34:23;18.60;99.90
19952;DHT22;10137;49.406;19.484;2023-09-19T13:36:58;18.60;99.90
19952;DHT22;10137;49.406;19.484;2023-09-19T13:39:31;18.60;99.90
19952;DHT22;10137;49.406;19.484;2023-09-19T13:42:03;18.70;99.90
19952;DHT22;10137;49.406;19.484;2023-09-19T13:44:33;18.70;99.90
19952;DHT22;10137;49.406;19.484;2023-09-19T13:47:01;18.70;99.90
19952;DHT22;10137;49.406;19.484;2023-09-19T13:49:30;18.70;99.90
19952;DHT22;10137;49.406;19.484;2023-09-19T13:51:58;18.80;99.90
19952;DHT22;10137;49.406;19.484;2023-09-19T13:54:30;18.80;99.90
19952;DHT22;10137;49.406;19.484;2023-09-19T13:56:58;18.80;99.90
19952;DHT22;10137;49.406;19.484;2023-09-19T13:59:29;18.80;99.90
19952;DHT22;10137;49.406;19.484;2023-09-19T14:02:01;18.90;99.90
19952;DHT22;10137;49.406;19.484;2023-09-19T14:04:30;18.90;99.90
19952;DHT22;10137;49.406;19.484;2023-09-19T14:06:58;18.80;99.90
19952;DHT22;10137;49.406;19.484;2023-09-19T14:09:27;18.80;99.90
19952;DHT22;10137;49.406;19.484;2023-09-19T14:11:56;18.80;99.90
19952;DHT22;10137;49.406;19.484;2023-09-19T14:14:24;18.80;99.90
19952;DHT22;10137;49.406;19.484;2023-09-19T14:16:52;18.80;99.90
19952;DHT22;10137;49.406;19.484;2023-09-19T14:19:28;18.80;99.90
19952;DHT22;10137;49.406;19.484;2023-09-19T14:21:58;18.80;99.90
19952;DHT22;10137;49.406;19.484;2023-09-19T14:24:29;18.70;99.90
19952;DHT22;10137;49.406;19.484;2023-09-19T14:26:59;18.70;99.90
19952;DHT22;10137;49.406;19.484;2023-09-19T14:29:30;18.70;99.90
19952;DHT22;10137;49.406;19.484;2023-09-19T14:32:04;18.70;99.90
19952;DHT22;10137;49.406;19.484;2023-09-19T14:34:39;18.70;99.90
19952;DHT22;10137;49.406;19.484;2023-09-19T14:37:11;18.70;99.90
19952;DHT22;10137;49.406;19.484;2023-09-19T14:39:40;18.70;99.90
19952;DHT22;10137;49.406;19.484;2023-09-19T14:42:11;18.60;99.90
19952;DHT22;10137;49.406;19.484;2023-09-19T14:44:41;18.60;99.90
19952;DHT22;10137;49.406;19.484;2023-09-19T14:47:10;18.70;99.90
19952;DHT22;10137;49.406;19.484;2023-09-19T14:49:41;18.70;99.90
19952;DHT22;10137;49.406;19.484;2023-09-19T14:52:11;18.60;99.90
19952;DHT22;10137;49.406;19.484;2023-09-19T14:54:42;18.60;99.90
19952;DHT22;10137;49.406;19.484;2023-09-19T14:57:10;18.60;99.90
19952;DHT22;10137;49.406;19.484;2023-09-19T14:59:40;18.50;99.90
19952;DHT22;10137;49.406;19.484;2023-09-19T15:02:08;18.50;99.90
19952;DHT22;10137;49.406;19.484;2023-09-19T15:04:35;18.50;99.90
19952;DHT22;10137;49.406;19.484;2023-09-19T15:07:06;18.60;99.90
19952;DHT22;10137;49.406;19.484;2023-09-19T15:09:34;18.60;99.90
19952;DHT22;10137;49.406;19.484;2023-09-19T15:12:03;18.50;99.90
19952;DHT22;10137;49.406;19.484;2023-09-19T15:14:31;18.50;99.90
19952;DHT22;10137;49.406;19.484;2023-09-19T15:16:59;18.50;99.90
19952;DHT22;10137;49.406;19.484;2023-09-19T15:19:31;18.50;99.90
19952;DHT22;10137;49.406;19.484;2023-09-19T15:21:58;18.50;99.90
19952;DHT22;10137;49.406;19.484;2023-09-19T15:24:30;18.50;99.90
19952;DHT22;10137;49.406;19.484;2023-09-19T15:27:00;18.40;99.90
19952;DHT22;10137;49.406;19.484;2023-09-19T15:29:29;18.40;99.90
19952;DHT22;10137;49.406;19.484;2023-09-19T15:31:57;18.40;99.90
19952;DHT22;10137;49.406;19.484;2023-09-19T15:34:29;18.40;99.90
19952;DHT22;10137;49.406;19.484;2023-09-19T15:36:59;18.30;99.90
19952;DHT22;10137;49.406;19.484;2023-09-19T15:39:46;18.30;99.90
19952;DHT22;10137;49.406;19.484;2023-09-19T15:42:13;18.30;99.90
19952;DHT22;10137;49.406;19.484;2023-09-19T15:44:42;18.20;99.90
19952;DHT22;10137;49.406;19.484;2023-09-19T15:47:16;18.20;99.90
19952;DHT22;10137;49.406;19.484;2023-09-19T15:49:44;18.20;99.90
19952;DHT22;10137;49.406;19.484;2023-09-19T15:52:17;18.20;99.90